createdAt,value
2023-05-07T00:00:34.985Z,14.10
2023-05-07T00:03:21.362Z,16.60
2023-05-07T00:05:49.460Z,15.00
2023-05-07T00:08:17.327Z,13.20
2023-05-07T00:10:45.760Z,14.30
2023-05-07T00:13:13.782Z,12.50
2023-05-07T00:15:41.686Z,13.60
2023-05-07T00:18:09.593Z,11.30
2023-05-07T00:20:37.546Z,10.90
2023-05-07T00:23:05.585Z,11.30
2023-05-07T00:25:35.703Z,11.20
2023-05-07T00:28:04.967Z,15.00
2023-05-07T00:30:33.365Z,10.40
2023-05-07T00:33:01.756Z,14.90
2023-05-07T00:35:30.930Z,13.70
2023-05-07T00:37:59.179Z,9.20
2023-05-07T00:40:29.959Z,11.70
2023-05-07T00:43:01.819Z,10.60
2023-05-07T00:45:30.736Z,9.60
2023-05-07T00:48:02.082Z,12.90
2023-05-07T00:50:30.863Z,11.80
2023-05-07T00:52:59.662Z,13.00
2023-05-07T00:55:27.686Z,10.30
2023-05-07T00:57:55.671Z,11.40
2023-05-07T01:00:23.554Z,10.70
2023-05-07T01:02:52.125Z,11.40
2023-05-07T01:05:21.586Z,11.50
2023-05-07T01:07:50.949Z,11.40
2023-05-07T01:10:19.021Z,10.70
2023-05-07T01:12:48.285Z,10.30
2023-05-07T01:15:16.339Z,18.20
2023-05-07T01:17:44.512Z,13.80
2023-05-07T01:20:13.054Z,12.80
2023-05-07T01:22:41.767Z,12.70
2023-05-07T01:25:09.710Z,13.80
2023-05-07T01:27:38.279Z,11.20
2023-05-07T01:30:07.128Z,9.70
2023-05-07T01:32:53.535Z,10.60
2023-05-07T01:35:27.035Z,11.20
2023-05-07T01:37:55.546Z,8.90
2023-05-07T01:40:24.393Z,10.10
2023-05-07T01:42:52.276Z,13.90
2023-05-07T01:45:20.121Z,12.80
2023-05-07T01:47:48.134Z,11.30
2023-05-07T01:50:17.417Z,11.30
2023-05-07T01:52:45.283Z,11.20
2023-05-07T01:55:13.721Z,9.50
2023-05-07T01:57:42.139Z,9.50
2023-05-07T02:00:10.775Z,9.60
2023-05-07T02:02:39.686Z,8.10
2023-05-07T02:05:08.182Z,10.00
2023-05-07T02:07:36.005Z,9.40
2023-05-07T02:10:04.246Z,9.60
2023-05-07T02:12:32.268Z,10.40
2023-05-07T02:15:00.229Z,11.00
2023-05-07T02:17:28.367Z,10.00
2023-05-07T02:19:56.127Z,8.60
2023-05-07T02:22:24.082Z,8.90
2023-05-07T02:24:51.957Z,12.50
2023-05-07T02:27:19.820Z,11.80
2023-05-07T02:29:47.622Z,9.10
2023-05-07T02:32:15.643Z,8.90
2023-05-07T02:34:43.582Z,10.60
2023-05-07T02:37:11.536Z,12.00
2023-05-07T02:39:39.347Z,12.20
2023-05-07T02:42:07.230Z,9.50
2023-05-07T02:44:36.650Z,14.10
2023-05-07T02:47:05.222Z,11.40
2023-05-07T02:49:33.068Z,9.10
2023-05-07T02:52:00.908Z,12.00
2023-05-07T02:54:28.700Z,10.60
2023-05-07T02:56:57.404Z,12.40
2023-05-07T02:59:27.248Z,12.30
2023-05-07T03:01:55.268Z,13.80
2023-05-07T03:04:23.299Z,12.20
2023-05-07T03:06:51.105Z,11.90
2023-05-07T03:09:19.026Z,14.70
2023-05-07T03:11:46.917Z,11.30
2023-05-07T03:14:14.709Z,10.80
2023-05-07T03:16:42.605Z,11.50
2023-05-07T03:19:10.601Z,11.40
2023-05-07T03:21:38.369Z,12.20
2023-05-07T03:24:06.813Z,8.80
2023-05-07T03:26:34.680Z,10.70
2023-05-07T03:29:02.819Z,12.20
2023-05-07T03:31:31.070Z,14.00
2023-05-07T03:33:59.007Z,14.60
2023-05-07T03:36:28.498Z,11.30
2023-05-07T03:38:56.403Z,10.60
2023-05-07T03:41:24.212Z,16.20
2023-05-07T03:43:52.016Z,15.60
2023-05-07T03:46:19.860Z,19.50
2023-05-07T03:48:47.712Z,19.90
2023-05-07T03:51:15.645Z,24.20
2023-05-07T03:53:43.724Z,14.00
2023-05-07T03:56:11.525Z,14.00
2023-05-07T03:58:39.276Z,14.40
2023-05-07T04:01:08.469Z,19.40
2023-05-07T04:03:36.512Z,15.80
2023-05-07T04:06:04.546Z,11.60
2023-05-07T04:08:32.493Z,17.90
2023-05-07T04:11:01.312Z,16.80
2023-05-07T04:13:30.827Z,16.70
2023-05-07T04:15:58.837Z,16.60
2023-05-07T04:18:26.748Z,14.10
2023-05-07T04:20:54.638Z,13.30
2023-05-07T04:23:22.970Z,14.10
2023-05-07T04:25:51.927Z,15.30
2023-05-07T04:28:19.794Z,15.60
2023-05-07T04:30:47.605Z,20.60
2023-05-07T04:33:18.568Z,19.80
2023-05-07T04:35:47.246Z,17.60
2023-05-07T04:38:15.198Z,19.30
2023-05-07T04:40:43.641Z,17.40
2023-05-07T04:43:11.549Z,14.70
2023-05-07T04:45:42.273Z,15.00
2023-05-07T04:48:10.924Z,18.50
2023-05-07T04:50:39.524Z,20.30
2023-05-07T04:53:07.391Z,21.40
2023-05-07T04:55:35.188Z,15.10
2023-05-07T04:58:03.042Z,18.50
2023-05-07T05:00:30.838Z,15.80
2023-05-07T05:02:58.787Z,13.60
2023-05-07T05:05:26.793Z,11.40
2023-05-07T05:07:54.665Z,11.30
2023-05-07T05:10:24.627Z,14.20
2023-05-07T05:12:53.155Z,8.60
2023-05-07T05:15:21.160Z,8.70
2023-05-07T05:17:49.251Z,10.30
2023-05-07T05:20:19.993Z,11.60
2023-05-07T05:22:47.996Z,8.90
2023-05-07T05:25:16.179Z,9.90
2023-05-07T05:27:44.051Z,10.30
2023-05-07T05:30:13.098Z,10.70
2023-05-07T05:32:41.213Z,8.50
2023-05-07T05:35:09.695Z,12.00
2023-05-07T05:37:37.569Z,9.70
2023-05-07T05:40:06.231Z,8.80
2023-05-07T05:42:34.045Z,7.80
2023-05-07T05:45:01.908Z,8.90
2023-05-07T05:47:30.708Z,9.00
2023-05-07T05:49:58.702Z,7.90
2023-05-07T05:52:26.696Z,10.00
2023-05-07T05:54:54.861Z,10.30
2023-05-07T05:57:22.755Z,7.50
2023-05-07T05:59:54.889Z,10.10
2023-05-07T06:02:22.884Z,8.00
2023-05-07T06:04:51.177Z,7.70
2023-05-07T06:07:19.083Z,8.70
2023-05-07T06:09:47.087Z,10.10
2023-05-07T06:12:14.916Z,8.20
2023-05-07T06:14:44.850Z,5.60
2023-05-07T06:17:12.797Z,5.20
2023-05-07T06:19:40.858Z,8.60
2023-05-07T06:22:08.723Z,4.90
2023-05-07T06:24:36.743Z,7.40
2023-05-07T06:27:04.775Z,6.20
2023-05-07T06:29:34.504Z,6.70
2023-05-07T06:32:13.895Z,6.40
2023-05-07T06:34:42.257Z,4.80
2023-05-07T06:37:10.257Z,4.30
2023-05-07T06:39:38.184Z,7.50
2023-05-07T06:42:06.920Z,5.40
2023-05-07T06:44:34.763Z,5.80
2023-05-07T06:47:04.548Z,6.20
2023-05-07T06:49:32.507Z,4.50
2023-05-07T06:52:00.746Z,6.30
2023-05-07T06:54:28.658Z,6.50
2023-05-07T06:56:56.585Z,11.80
2023-05-07T06:59:25.137Z,11.00
2023-05-07T07:01:53.019Z,27.10
2023-05-07T07:04:20.901Z,8.10
2023-05-07T07:06:48.708Z,8.40
2023-05-07T07:09:16.486Z,4.90
2023-05-07T07:11:44.258Z,4.90
2023-05-07T07:14:12.144Z,4.30
2023-05-07T07:16:39.977Z,4.90
2023-05-07T07:19:08.080Z,11.20
2023-05-07T07:21:35.954Z,9.30
2023-05-07T07:24:04.098Z,4.80
2023-05-07T07:26:32.386Z,5.10
2023-05-07T07:29:00.339Z,4.70
2023-05-07T07:31:28.312Z,4.20
2023-05-07T07:33:56.379Z,17.20
2023-05-07T07:36:29.508Z,4.90
2023-05-07T07:39:06.521Z,5.80
2023-05-07T07:41:34.337Z,3.70
2023-05-07T07:44:02.207Z,6.00
2023-05-07T07:46:30.148Z,6.00
2023-05-07T07:49:00.013Z,6.20
2023-05-07T07:51:27.841Z,5.90
2023-05-07T07:53:55.903Z,7.40
2023-05-07T07:56:23.737Z,6.10
2023-05-07T07:58:51.599Z,6.10
2023-05-07T08:01:19.415Z,6.40
2023-05-07T08:03:47.524Z,6.20
2023-05-07T08:06:15.575Z,5.10
2023-05-07T08:08:43.372Z,5.30
2023-05-07T08:11:11.374Z,8.60
2023-05-07T08:13:39.854Z,5.90
2023-05-07T08:16:07.952Z,5.70
2023-05-07T08:18:35.781Z,6.40
2023-05-07T08:21:04.059Z,5.30
2023-05-07T08:23:32.837Z,3.90
2023-05-07T08:26:00.791Z,6.20
2023-05-07T08:28:28.811Z,6.80
2023-05-07T08:30:57.848Z,6.10
2023-05-07T08:33:25.782Z,8.10
2023-05-07T08:35:53.654Z,6.00
2023-05-07T08:38:21.454Z,4.00
2023-05-07T08:40:49.319Z,5.30
2023-05-07T08:43:18.006Z,4.80
2023-05-07T08:45:47.109Z,6.00
2023-05-07T08:48:18.814Z,5.40
2023-05-07T08:50:46.871Z,3.50
2023-05-07T08:53:17.148Z,4.20
2023-05-07T08:55:44.932Z,3.00
2023-05-07T08:58:12.845Z,7.10
2023-05-07T09:00:41.676Z,3.70
2023-05-07T09:03:09.963Z,4.20
2023-05-07T09:05:37.932Z,8.00
2023-05-07T09:08:08.032Z,5.10
2023-05-07T09:10:36.246Z,5.10
2023-05-07T09:13:04.463Z,4.10
2023-05-07T09:15:32.464Z,5.50
2023-05-07T09:18:04.516Z,3.70
2023-05-07T09:20:32.980Z,3.70
2023-05-07T09:23:00.953Z,3.00
2023-05-07T09:25:36.230Z,4.20
2023-05-07T09:28:07.271Z,3.30
2023-05-07T09:30:36.140Z,5.80
2023-05-07T09:33:04.834Z,3.90
2023-05-07T09:35:32.696Z,4.20
2023-05-07T09:38:04.198Z,5.00
2023-05-07T09:40:32.615Z,5.10
2023-05-07T09:43:14.620Z,4.20
2023-05-07T09:45:42.473Z,5.70
2023-05-07T09:48:11.401Z,5.50
2023-05-07T09:50:50.983Z,3.90
2023-05-07T09:53:18.851Z,3.80
2023-05-07T09:55:47.163Z,6.10
2023-05-07T09:58:15.894Z,7.20
2023-05-07T10:00:43.927Z,5.60
2023-05-07T10:03:13.910Z,6.60
2023-05-07T10:05:43.494Z,5.70
2023-05-07T10:08:11.732Z,8.00
2023-05-07T10:10:39.690Z,8.00
2023-05-07T10:13:11.746Z,4.40
2023-05-07T10:15:39.648Z,6.20
2023-05-07T10:18:07.847Z,5.20
2023-05-07T10:20:37.573Z,6.10
2023-05-07T10:23:07.037Z,7.10
2023-05-07T10:25:35.544Z,10.40
2023-05-07T10:28:09.927Z,7.80
2023-05-07T10:30:55.005Z,6.70
2023-05-07T10:33:28.514Z,8.80
2023-05-07T10:36:00.407Z,5.30
2023-05-07T10:38:29.150Z,4.20
2023-05-07T10:40:56.965Z,5.50
2023-05-07T10:43:24.952Z,4.40
2023-05-07T10:46:13.244Z,5.90
2023-05-07T10:49:07.394Z,4.40
2023-05-07T10:51:36.762Z,5.20
2023-05-07T10:54:10.872Z,3.60
2023-05-07T10:56:46.942Z,8.10
2023-05-07T10:59:24.770Z,4.60
2023-05-07T11:02:00.214Z,4.10
2023-05-07T11:04:28.803Z,5.90
2023-05-07T11:07:12.329Z,4.20
2023-05-07T11:09:56.829Z,4.30
2023-05-07T11:12:54.867Z,3.80
2023-05-07T11:15:45.234Z,9.60
2023-05-07T11:18:16.147Z,3.90
2023-05-07T11:20:56.089Z,4.70
2023-05-07T11:23:35.965Z,3.50
2023-05-07T11:26:05.333Z,30.00
2023-05-07T11:28:42.181Z,5.30
2023-05-07T11:31:11.065Z,2.90
2023-05-07T11:33:39.353Z,3.90
2023-05-07T11:36:09.140Z,3.50
2023-05-07T11:38:38.736Z,4.50
2023-05-07T11:41:06.796Z,4.40
2023-05-07T11:43:36.913Z,7.60
2023-05-07T11:46:13.420Z,3.60
2023-05-07T11:48:42.430Z,3.30
2023-05-07T11:51:12.353Z,6.30
2023-05-07T11:53:42.586Z,5.20
2023-05-07T11:56:16.937Z,3.70
2023-05-07T11:58:46.473Z,4.00
2023-05-07T12:01:16.713Z,4.10
2023-05-07T12:03:48.826Z,3.70
2023-05-07T12:06:20.916Z,4.00
2023-05-07T12:08:49.076Z,7.40
2023-05-07T12:11:23.951Z,4.00
2023-05-07T12:13:52.029Z,3.70
2023-05-07T12:16:20.583Z,4.10
2023-05-07T12:18:56.145Z,6.00
2023-05-07T12:21:24.512Z,6.10
2023-05-07T12:23:52.349Z,4.70
2023-05-07T12:26:22.088Z,3.30
2023-05-07T12:28:49.928Z,4.80
2023-05-07T12:31:18.734Z,3.50
2023-05-07T12:33:46.891Z,5.30
2023-05-07T12:36:15.317Z,5.20
2023-05-07T12:38:43.221Z,4.70
2023-05-07T12:41:13.416Z,3.60
2023-05-07T12:43:45.037Z,9.40
2023-05-07T12:46:14.732Z,3.70
2023-05-07T12:48:48.419Z,3.30
2023-05-07T12:51:17.003Z,3.40
2023-05-07T12:53:44.916Z,4.10
2023-05-07T12:56:12.714Z,5.40
2023-05-07T12:58:42.043Z,5.20
2023-05-07T13:01:11.098Z,4.10
2023-05-07T13:03:39.905Z,5.00
2023-05-07T13:06:11.674Z,3.60
2023-05-07T13:08:44.223Z,3.40
2023-05-07T13:11:13.080Z,4.40
2023-05-07T13:13:42.223Z,4.40
2023-05-07T13:16:12.289Z,4.40
2023-05-07T13:18:41.876Z,5.40
2023-05-07T13:21:11.168Z,5.30
2023-05-07T13:23:39.715Z,3.00
2023-05-07T13:26:22.534Z,4.30
2023-05-07T13:28:55.653Z,4.80
2023-05-07T13:31:23.740Z,3.70
2023-05-07T13:33:51.872Z,5.40
2023-05-07T13:36:19.811Z,5.60
2023-05-07T13:38:47.766Z,6.50
2023-05-07T13:41:15.872Z,7.60
2023-05-07T13:43:43.656Z,5.00
2023-05-07T13:46:11.513Z,6.10
2023-05-07T13:48:39.540Z,7.10
2023-05-07T13:51:07.525Z,6.00
2023-05-07T13:53:36.250Z,5.20
2023-05-07T13:56:06.123Z,4.10
2023-05-07T13:58:34.070Z,5.10
2023-05-07T14:01:02.029Z,5.30
2023-05-07T14:03:30.921Z,4.20
2023-05-07T14:06:00.868Z,10.30
2023-05-07T14:08:31.719Z,6.30
2023-05-07T14:10:59.843Z,6.00
2023-05-07T14:13:28.552Z,5.80
2023-05-07T14:15:56.838Z,4.00
2023-05-07T14:18:24.840Z,6.10
2023-05-07T14:20:52.786Z,5.00
2023-05-07T14:23:21.878Z,5.90
2023-05-07T14:25:49.899Z,4.50
2023-05-07T14:28:17.959Z,4.50
2023-05-07T14:30:46.304Z,4.20
2023-05-07T14:33:14.216Z,6.70
2023-05-07T14:35:42.231Z,4.90
2023-05-07T14:38:10.003Z,4.30
2023-05-07T14:40:37.859Z,5.00
2023-05-07T14:43:05.653Z,4.80
2023-05-07T14:45:33.459Z,4.00
2023-05-07T14:48:01.398Z,5.10
2023-05-07T14:50:29.178Z,3.30
2023-05-07T14:52:57.004Z,8.80
2023-05-07T14:55:24.790Z,6.70
2023-05-07T14:57:52.602Z,5.80
2023-05-07T15:00:20.755Z,9.30
2023-05-07T15:02:48.810Z,8.30
2023-05-07T15:05:16.971Z,4.80
2023-05-07T15:07:45.760Z,7.70
2023-05-07T15:10:14.181Z,8.80
2023-05-07T15:12:42.123Z,11.20
2023-05-07T15:15:11.233Z,7.10
2023-05-07T15:17:39.283Z,7.80
2023-05-07T15:20:10.089Z,8.50
2023-05-07T15:22:38.153Z,10.00
2023-05-07T15:25:06.717Z,20.00
2023-05-07T15:27:34.665Z,18.00
2023-05-07T15:30:02.593Z,12.00
2023-05-07T15:32:30.893Z,12.90
2023-05-07T15:34:58.712Z,12.50
2023-05-07T15:37:29.416Z,7.10
2023-05-07T15:39:57.304Z,13.80
2023-05-07T15:42:25.343Z,15.40
2023-05-07T15:44:53.466Z,11.40
2023-05-07T15:47:22.189Z,18.90
2023-05-07T15:49:56.944Z,13.70
2023-05-07T15:52:25.129Z,51.90
2023-05-07T15:54:53.051Z,10.50
2023-05-07T15:57:21.637Z,5.90
2023-05-07T15:59:49.507Z,6.50
2023-05-07T16:02:17.526Z,11.90
2023-05-07T16:04:45.406Z,6.70
2023-05-07T16:07:13.280Z,5.70
2023-05-07T16:09:41.362Z,7.00
2023-05-07T16:12:09.129Z,5.90
2023-05-07T16:14:36.994Z,5.80
2023-05-07T16:17:04.916Z,5.80
2023-05-07T16:19:32.844Z,15.90
2023-05-07T16:22:00.707Z,7.20
2023-05-07T16:24:28.649Z,12.30
2023-05-07T16:26:56.551Z,9.50
2023-05-07T16:29:24.481Z,11.60
2023-05-07T16:31:54.230Z,10.30
2023-05-07T16:34:23.377Z,9.20
2023-05-07T16:36:51.288Z,8.10
2023-05-07T16:39:19.375Z,11.40
2023-05-07T16:41:48.855Z,6.50
2023-05-07T16:44:17.909Z,6.70
2023-05-07T16:46:45.886Z,15.80
2023-05-07T16:49:13.732Z,8.20
2023-05-07T16:51:43.394Z,7.70
2023-05-07T16:54:11.326Z,5.90
2023-05-07T16:56:39.167Z,22.90
2023-05-07T16:59:07.408Z,10.90
2023-05-07T17:01:35.641Z,15.10
2023-05-07T17:04:03.644Z,7.30
2023-05-07T17:06:31.760Z,11.00
2023-05-07T17:08:59.871Z,7.50
2023-05-07T17:11:31.071Z,9.20
2023-05-07T17:13:59.087Z,5.60
2023-05-07T17:16:27.281Z,6.20
2023-05-07T17:18:55.193Z,8.20
2023-05-07T17:21:23.146Z,4.30
2023-05-07T17:23:51.024Z,5.40
2023-05-07T17:26:18.989Z,5.10
2023-05-07T17:28:47.178Z,9.90
2023-05-07T17:31:15.291Z,8.00
2023-05-07T17:33:43.266Z,7.70
2023-05-07T17:36:11.185Z,6.80
2023-05-07T17:38:39.122Z,8.50
2023-05-07T17:41:07.162Z,7.50
2023-05-07T17:43:34.959Z,4.40
2023-05-07T17:46:03.497Z,5.70
2023-05-07T17:48:31.727Z,7.10
2023-05-07T17:51:03.973Z,8.50
2023-05-07T17:53:32.376Z,9.70
2023-05-07T17:56:00.413Z,10.90
2023-05-07T17:58:28.289Z,12.50
2023-05-07T18:00:56.393Z,12.20
2023-05-07T18:03:27.988Z,18.30
2023-05-07T18:05:56.015Z,18.40
2023-05-07T18:08:23.949Z,20.40
2023-05-07T18:10:52.419Z,22.40
2023-05-07T18:13:20.684Z,29.70
2023-05-07T18:15:48.850Z,29.30
2023-05-07T18:18:16.752Z,23.90
2023-05-07T18:20:50.943Z,21.80
2023-05-07T18:23:21.438Z,23.40
2023-05-07T18:25:49.420Z,26.20
2023-05-07T18:28:17.332Z,27.00
2023-05-07T18:30:45.396Z,21.70
2023-05-07T18:33:13.576Z,17.20
2023-05-07T18:35:41.520Z,8.00
2023-05-07T18:38:11.119Z,7.80
2023-05-07T18:40:44.036Z,11.10
2023-05-07T18:43:12.052Z,16.00
2023-05-07T18:45:39.923Z,14.30
2023-05-07T18:48:07.828Z,16.50
2023-05-07T18:50:35.797Z,15.60
2023-05-07T18:53:04.184Z,18.20
2023-05-07T18:55:32.098Z,16.10
2023-05-07T18:57:59.901Z,18.90
2023-05-07T19:00:27.724Z,17.10
2023-05-07T19:02:56.189Z,15.80
2023-05-07T19:05:26.000Z,17.70
2023-05-07T19:07:53.882Z,20.40
2023-05-07T19:10:21.980Z,18.40
2023-05-07T19:12:55.358Z,20.80
2023-05-07T19:15:23.636Z,24.60
2023-05-07T19:17:51.965Z,25.80
2023-05-07T19:20:20.511Z,20.10
2023-05-07T19:22:48.433Z,17.70
2023-05-07T19:25:18.163Z,11.60
2023-05-07T19:27:47.552Z,12.20
2023-05-07T19:30:15.473Z,14.10
2023-05-07T19:32:43.562Z,10.30
2023-05-07T19:35:11.743Z,16.40
2023-05-07T19:37:39.841Z,16.60
2023-05-07T19:40:09.507Z,15.00
2023-05-07T19:42:37.491Z,12.50
2023-05-07T19:45:06.022Z,11.00
2023-05-07T19:47:33.951Z,13.30
2023-05-07T19:50:02.001Z,19.10
2023-05-07T19:52:29.933Z,21.20
2023-05-07T19:54:57.945Z,25.30
2023-05-07T19:57:27.247Z,25.80
2023-05-07T19:59:55.217Z,19.40
2023-05-07T20:02:23.435Z,21.70
2023-05-07T20:04:51.522Z,17.90
2023-05-07T20:07:19.412Z,17.60
2023-05-07T20:09:47.423Z,20.00
2023-05-07T20:12:15.379Z,18.40
2023-05-07T20:14:46.130Z,19.60
2023-05-07T20:17:14.369Z,19.40
2023-05-07T20:19:42.328Z,23.60
2023-05-07T20:22:10.214Z,22.00
2023-05-07T20:24:41.790Z,17.90
2023-05-07T20:27:09.694Z,20.20
2023-05-07T20:29:39.959Z,30.80
2023-05-07T20:32:07.968Z,25.30
2023-05-07T20:34:35.961Z,27.90
2023-05-07T20:37:06.398Z,27.70
2023-05-07T20:39:34.264Z,56.10
2023-05-07T20:42:02.072Z,121.00
2023-05-07T20:44:35.955Z,153.40
2023-05-07T20:47:04.767Z,235.60
2023-05-07T20:49:33.061Z,200.50
2023-05-07T20:52:00.837Z,157.50
2023-05-07T20:54:29.031Z,135.50
2023-05-07T20:56:58.030Z,108.90
2023-05-07T20:59:26.216Z,89.50
2023-05-07T21:01:54.524Z,67.40
2023-05-07T21:04:22.739Z,51.00
2023-05-07T21:06:50.624Z,38.20
2023-05-07T21:09:19.223Z,32.70
2023-05-07T21:11:47.111Z,28.00
2023-05-07T21:14:14.905Z,26.40
2023-05-07T21:16:43.557Z,27.90
2023-05-07T21:19:12.437Z,27.80
2023-05-07T21:21:42.486Z,30.60
2023-05-07T21:24:11.220Z,27.30
2023-05-07T21:26:39.079Z,27.40
2023-05-07T21:29:09.012Z,34.00
2023-05-07T21:31:36.887Z,40.60
2023-05-07T21:34:07.785Z,44.90
2023-05-07T21:36:36.019Z,52.00
2023-05-07T21:39:04.705Z,53.70
2023-05-07T21:41:32.582Z,59.90
2023-05-07T21:44:00.686Z,57.90
2023-05-07T21:46:28.501Z,49.80
2023-05-07T21:48:56.546Z,50.10
2023-05-07T21:51:24.612Z,55.10
2023-05-07T21:53:52.495Z,53.30
2023-05-07T21:56:20.547Z,53.80
2023-05-07T21:58:48.691Z,54.50
2023-05-07T22:01:16.561Z,51.80
2023-05-07T22:03:44.596Z,52.40
2023-05-07T22:06:12.699Z,63.90
2023-05-07T22:08:40.439Z,74.40
2023-05-07T22:11:08.607Z,86.80
2023-05-07T22:13:36.637Z,88.90
2023-05-07T22:16:05.110Z,90.90
2023-05-07T22:18:33.073Z,86.10
2023-05-07T22:21:00.983Z,91.60
2023-05-07T22:23:28.836Z,109.10
2023-05-07T22:25:56.641Z,97.10
2023-05-07T22:28:24.494Z,99.00
2023-05-07T22:30:52.334Z,97.20
2023-05-07T22:33:20.117Z,76.90
2023-05-07T22:35:47.890Z,72.20
2023-05-07T22:38:15.798Z,60.40
2023-05-07T22:40:43.632Z,58.50
2023-05-07T22:43:11.571Z,63.90
2023-05-07T22:45:39.577Z,74.80
2023-05-07T22:48:07.548Z,78.60
2023-05-07T22:50:39.047Z,77.20
2023-05-07T22:53:07.185Z,78.80
2023-05-07T22:55:35.473Z,76.00
2023-05-07T22:58:03.340Z,82.90
2023-05-07T23:00:31.367Z,93.00
2023-05-07T23:02:59.215Z,85.90
2023-05-07T23:05:27.136Z,83.80
2023-05-07T23:07:54.963Z,93.60
2023-05-07T23:10:22.908Z,67.80
2023-05-07T23:12:51.688Z,71.00
2023-05-07T23:15:20.182Z,54.70
2023-05-07T23:17:48.778Z,57.00
2023-05-07T23:20:16.971Z,49.10
2023-05-07T23:22:44.810Z,58.90
2023-05-07T23:25:12.639Z,53.90
2023-05-07T23:27:40.407Z,57.10
2023-05-07T23:30:11.986Z,70.80
2023-05-07T23:32:40.100Z,63.80
2023-05-07T23:35:08.964Z,61.60
2023-05-07T23:37:37.654Z,59.60
2023-05-07T23:40:06.601Z,65.50
2023-05-07T23:42:35.490Z,72.90
2023-05-07T23:45:03.975Z,65.50
2023-05-07T23:47:31.841Z,62.90
2023-05-07T23:49:59.793Z,53.10
2023-05-07T23:52:27.679Z,37.20
2023-05-07T23:54:55.457Z,39.20
2023-05-07T23:57:23.255Z,37.20
2023-05-07T23:59:51.111Z,42.60
